createdAt,value
2019-05-07T00:00:22.081Z,54.59
2019-05-07T00:01:19.815Z,54.65
2019-05-07T00:02:07.181Z,54.72
2019-05-07T00:02:42.868Z,54.35
2019-05-07T00:03:18.459Z,54.95
2019-05-07T00:03:53.890Z,54.95
2019-05-07T00:04:29.654Z,54.61
2019-05-07T00:05:05.694Z,54.29
2019-05-07T00:05:42.795Z,54.29
2019-05-07T00:06:18.693Z,54.75
2019-05-07T00:06:54.156Z,54.75
2019-05-07T00:07:29.598Z,54.76
2019-05-07T00:08:05.734Z,54.76
2019-05-07T00:08:44.654Z,55.01
2019-05-07T00:09:18.302Z,55.01
2019-05-07T00:09:54.193Z,54.92
2019-05-07T00:10:29.933Z,54.94
2019-05-07T00:11:05.457Z,54.94
2019-05-07T00:11:42.605Z,54.98
2019-05-07T00:12:18.277Z,54.33
2019-05-07T00:12:53.784Z,54.33
2019-05-07T00:13:29.508Z,54.97
2019-05-07T00:14:05.561Z,53.85
2019-05-07T00:14:42.925Z,53.85
2019-05-07T00:15:18.522Z,54.09
2019-05-07T00:15:54.016Z,54.09
2019-05-07T00:16:29.467Z,54.26
2019-05-07T00:17:04.917Z,54.09
2019-05-07T00:17:40.366Z,54.25
2019-05-07T00:18:15.911Z,54.46
2019-05-07T00:18:52.570Z,54.46
2019-05-07T00:19:28.344Z,54.75
2019-05-07T00:20:03.807Z,54.75
2019-05-07T00:20:39.238Z,54.62
2019-05-07T00:21:15.245Z,54.67
2019-05-07T00:21:52.828Z,54.84
2019-05-07T00:22:29.341Z,54.84
2019-05-07T00:23:04.824Z,54.76
2019-05-07T00:23:40.385Z,55.15
2019-05-07T00:24:15.930Z,55.40
2019-05-07T00:24:52.192Z,55.38
2019-05-07T00:25:27.864Z,55.38
2019-05-07T00:26:03.873Z,55.07
2019-05-07T00:26:39.740Z,55.07
2019-05-07T00:27:15.815Z,54.73
2019-05-07T00:27:52.340Z,55.21
2019-05-07T00:28:28.420Z,55.21
2019-05-07T00:29:04.502Z,55.24
2019-05-07T00:29:39.967Z,55.24
2019-05-07T00:30:15.985Z,55.33
2019-05-07T00:30:52.122Z,55.13
2019-05-07T00:31:27.693Z,55.13
2019-05-07T00:32:03.157Z,55.31
2019-05-07T00:32:39.265Z,55.31
2019-05-07T00:33:15.520Z,55.28
2019-05-07T00:33:52.595Z,55.21
2019-05-07T00:34:34.267Z,55.49
2019-05-07T00:35:13.080Z,55.49
2019-05-07T00:36:13.016Z,55.27
2019-05-07T00:37:12.939Z,54.80
2019-05-07T00:37:52.451Z,54.80
2019-05-07T00:38:31.842Z,54.77
2019-05-07T00:39:23.931Z,54.85
2019-05-07T00:40:06.739Z,55.18
2019-05-07T00:41:02.825Z,55.18
2019-05-07T00:41:49.278Z,55.07
2019-05-07T00:42:42.771Z,55.15
2019-05-07T00:43:22.687Z,55.09
2019-05-07T00:43:58.807Z,55.18
2019-05-07T00:44:35.891Z,55.34
2019-05-07T00:45:23.771Z,55.53
2019-05-07T00:46:13.324Z,55.59
2019-05-07T00:46:48.878Z,55.59
2019-05-07T00:47:24.328Z,55.51
2019-05-07T00:47:59.754Z,55.46
2019-05-07T00:48:35.230Z,55.46
2019-05-07T00:49:12.667Z,55.48
2019-05-07T00:49:48.712Z,55.49
2019-05-07T00:50:28.850Z,55.18
2019-05-07T00:51:22.606Z,55.18
2019-05-07T00:51:58.169Z,54.84
2019-05-07T00:52:33.708Z,54.84
2019-05-07T00:53:09.148Z,55.29
2019-05-07T00:53:44.708Z,55.29
2019-05-07T00:54:20.221Z,55.20
2019-05-07T00:54:56.033Z,54.96
2019-05-07T00:55:32.565Z,55.41
2019-05-07T00:56:08.114Z,55.41
2019-05-07T00:56:44.031Z,55.14
2019-05-07T00:57:19.671Z,55.34
2019-05-07T00:57:55.119Z,55.34
2019-05-07T00:58:32.119Z,55.34
2019-05-07T00:59:08.246Z,54.86
2019-05-07T00:59:43.721Z,55.05
2019-05-07T01:00:19.357Z,55.05
2019-05-07T01:00:55.430Z,54.76
2019-05-07T01:01:32.385Z,54.76
2019-05-07T01:02:07.951Z,54.88
2019-05-07T01:02:43.479Z,55.41
2019-05-07T01:03:19.015Z,55.27
2019-05-07T01:03:54.595Z,55.46
2019-05-07T01:04:30.464Z,55.46
2019-05-07T01:05:06.147Z,55.79
2019-05-07T01:05:43.180Z,55.79
2019-05-07T01:06:19.174Z,56.12
2019-05-07T01:06:54.625Z,55.91
2019-05-07T01:07:32.329Z,55.57
2019-05-07T01:08:07.936Z,55.99
2019-05-07T01:08:43.397Z,55.99
2019-05-07T01:09:19.222Z,56.13
2019-05-07T01:09:54.753Z,55.81
2019-05-07T01:10:32.823Z,56.36
2019-05-07T01:11:07.736Z,56.36
2019-05-07T01:11:43.331Z,56.36
2019-05-07T01:12:19.181Z,56.38
2019-05-07T01:12:54.622Z,56.43
2019-05-07T01:13:32.223Z,56.32
2019-05-07T01:14:07.389Z,56.32
2019-05-07T01:14:42.967Z,56.51
2019-05-07T01:15:28.752Z,56.67
2019-05-07T01:15:55.665Z,56.26
2019-05-07T01:16:32.982Z,56.26
2019-05-07T01:17:08.331Z,56.53
2019-05-07T01:17:43.865Z,56.00
2019-05-07T01:18:19.471Z,56.63
2019-05-07T01:18:54.915Z,56.26
2019-05-07T01:19:32.887Z,56.26
2019-05-07T01:20:07.874Z,56.60
2019-05-07T01:20:44.196Z,55.85
2019-05-07T01:21:22.708Z,55.81
2019-05-07T01:21:57.832Z,55.81
2019-05-07T01:22:33.284Z,56.23
2019-05-07T01:23:08.745Z,56.24
2019-05-07T01:23:44.317Z,56.47
2019-05-07T01:24:20.105Z,56.47
2019-05-07T01:24:55.653Z,56.39
2019-05-07T01:25:32.878Z,56.35
2019-05-07T01:26:08.643Z,56.71
2019-05-07T01:26:44.198Z,56.71
2019-05-07T01:27:22.434Z,56.54
2019-05-07T01:27:58.256Z,56.78
2019-05-07T01:28:52.936Z,56.78
2019-05-07T01:29:28.383Z,56.79
2019-05-07T01:30:04.111Z,56.78
2019-05-07T01:30:39.595Z,56.59
2019-05-07T01:31:15.107Z,56.44
2019-05-07T01:31:56.550Z,56.66
2019-05-07T01:32:50.540Z,56.50
2019-05-07T01:33:52.872Z,57.01
2019-05-07T01:34:47.251Z,56.87
2019-05-07T01:35:45.203Z,56.83
2019-05-07T01:36:22.629Z,56.83
2019-05-07T01:36:59.325Z,56.55
2019-05-07T01:37:35.183Z,56.66
2019-05-07T01:38:12.315Z,57.05
2019-05-07T01:38:48.095Z,56.96
2019-05-07T01:39:23.586Z,56.84
2019-05-07T01:39:59.031Z,56.86
2019-05-07T01:40:35.039Z,57.14
2019-05-07T01:41:12.500Z,56.79
2019-05-07T01:41:47.918Z,56.79
2019-05-07T01:42:23.386Z,56.68
2019-05-07T01:42:58.910Z,56.68
2019-05-07T01:43:34.897Z,56.28
2019-05-07T01:44:12.710Z,56.46
2019-05-07T01:44:47.919Z,56.58
2019-05-07T01:45:24.855Z,56.46
2019-05-07T01:46:02.966Z,56.33
2019-05-07T01:46:37.941Z,56.75
2019-05-07T01:47:14.059Z,56.58
2019-05-07T01:47:49.734Z,56.53
2019-05-07T01:48:25.185Z,56.53
2019-05-07T01:49:02.936Z,56.53
2019-05-07T01:49:38.013Z,56.35
2019-05-07T01:50:14.283Z,56.37
2019-05-07T01:50:49.844Z,56.37
2019-05-07T01:51:25.338Z,56.59
2019-05-07T01:52:02.498Z,56.68
2019-05-07T01:52:38.055Z,56.74
2019-05-07T01:53:14.019Z,56.81
2019-05-07T01:53:49.562Z,56.67
2019-05-07T01:54:25.132Z,56.82
2019-05-07T01:55:03.007Z,56.89
2019-05-07T01:55:38.419Z,56.71
2019-05-07T01:56:14.227Z,56.96
2019-05-07T01:56:51.655Z,56.76
2019-05-07T01:57:27.323Z,56.93
2019-05-07T01:58:04.857Z,56.57
2019-05-07T01:58:42.332Z,56.57
2019-05-07T01:59:17.568Z,56.67
2019-05-07T01:59:53.410Z,56.67
2019-05-07T02:00:28.960Z,56.73
2019-05-07T02:01:04.427Z,56.48
2019-05-07T02:01:42.725Z,56.26
2019-05-07T02:02:23.467Z,56.26
2019-05-07T02:03:05.729Z,56.04
2019-05-07T02:03:53.866Z,56.51
2019-05-07T02:04:48.294Z,55.98
2019-05-07T02:05:42.856Z,56.09
2019-05-07T02:06:24.356Z,56.20
2019-05-07T02:07:15.692Z,56.20
2019-05-07T02:07:55.225Z,56.34
2019-05-07T02:08:44.933Z,56.25
2019-05-07T02:09:29.632Z,56.23
2019-05-07T02:10:11.953Z,56.49
2019-05-07T02:11:06.380Z,55.81
2019-05-07T02:11:44.052Z,55.81
2019-05-07T02:12:38.330Z,55.87
2019-05-07T02:13:14.267Z,56.13
2019-05-07T02:13:49.748Z,56.13
2019-05-07T02:14:25.532Z,55.79
2019-05-07T02:15:02.711Z,55.37
2019-05-07T02:15:38.385Z,55.37
2019-05-07T02:16:14.512Z,55.30
2019-05-07T02:16:50.020Z,55.30
2019-05-07T02:17:25.475Z,55.12
2019-05-07T02:18:02.036Z,55.12
2019-05-07T02:18:37.643Z,55.32
2019-05-07T02:19:14.429Z,55.19
2019-05-07T02:19:50.315Z,54.90
2019-05-07T02:20:25.788Z,54.83
2019-05-07T02:21:03.211Z,55.58
2019-05-07T02:21:38.767Z,55.32
2019-05-07T02:22:14.817Z,55.46
2019-05-07T02:22:50.351Z,55.13
2019-05-07T02:23:25.844Z,55.13
2019-05-07T02:24:03.325Z,55.69
2019-05-07T02:24:38.930Z,55.20
2019-05-07T02:25:14.878Z,55.20
2019-05-07T02:25:52.677Z,55.67
2019-05-07T02:26:28.187Z,55.64
2019-05-07T02:27:03.669Z,55.48
2019-05-07T02:27:39.143Z,55.54
2019-05-07T02:28:14.712Z,55.72
2019-05-07T02:28:51.862Z,55.59
2019-05-07T02:29:27.443Z,55.50
2019-05-07T02:30:04.568Z,55.50
2019-05-07T02:30:40.201Z,55.71
2019-05-07T02:31:15.729Z,55.36
2019-05-07T02:31:53.063Z,55.36
2019-05-07T02:32:28.854Z,55.13
2019-05-07T02:33:04.460Z,55.34
2019-05-07T02:33:42.657Z,55.68
2019-05-07T02:34:17.145Z,55.46
2019-05-07T02:34:54.499Z,55.43
2019-05-07T02:35:33.034Z,55.43
2019-05-07T02:36:06.990Z,55.11
2019-05-07T02:36:43.577Z,55.48
2019-05-07T02:37:29.439Z,55.48
2019-05-07T02:38:08.951Z,55.73
2019-05-07T02:39:12.628Z,56.00
2019-05-07T02:39:53.915Z,54.98
2019-05-07T02:40:43.046Z,55.39
2019-05-07T02:41:23.953Z,55.39
2019-05-07T02:41:59.786Z,55.96
2019-05-07T02:42:35.274Z,55.96
2019-05-07T02:43:14.111Z,55.98
2019-05-07T02:43:48.688Z,55.51
2019-05-07T02:44:24.764Z,55.66
2019-05-07T02:45:19.467Z,55.66
2019-05-07T02:46:26.361Z,55.66
2019-05-07T02:47:03.742Z,55.80
2019-05-07T02:47:37.793Z,55.96
2019-05-07T02:48:14.396Z,55.79
2019-05-07T02:49:03.136Z,55.79
2019-05-07T02:49:46.423Z,55.60
2019-05-07T02:50:26.854Z,55.43
2019-05-07T02:51:07.366Z,55.78
2019-05-07T02:51:49.608Z,55.94
2019-05-07T02:52:44.258Z,55.96
2019-05-07T02:53:33.796Z,56.53
2019-05-07T02:54:32.868Z,56.53
2019-05-07T02:55:14.367Z,56.10
2019-05-07T02:55:52.990Z,56.10
2019-05-07T02:56:28.477Z,56.25
2019-05-07T02:57:03.951Z,56.67
2019-05-07T02:57:39.411Z,56.70
2019-05-07T02:58:15.356Z,56.70
2019-05-07T02:58:52.809Z,56.17
2019-05-07T02:59:28.762Z,56.23
2019-05-07T03:00:05.592Z,56.49
2019-05-07T03:00:43.373Z,56.70
2019-05-07T03:01:22.451Z,56.75
2019-05-07T03:01:56.711Z,56.69
2019-05-07T03:02:33.271Z,56.38
2019-05-07T03:03:08.805Z,56.48
2019-05-07T03:03:45.078Z,56.55
2019-05-07T03:04:20.664Z,56.51
2019-05-07T03:04:56.477Z,56.52
2019-05-07T03:05:35.005Z,56.51
2019-05-07T03:06:09.842Z,56.45
2019-05-07T03:06:45.431Z,56.35
2019-05-07T03:07:23.898Z,56.63
2019-05-07T03:07:58.077Z,56.28
2019-05-07T03:08:33.545Z,56.28
2019-05-07T03:09:09.017Z,56.51
2019-05-07T03:09:44.876Z,56.70
2019-05-07T03:10:23.865Z,56.76
2019-05-07T03:10:58.333Z,56.77
2019-05-07T03:11:34.225Z,56.73
2019-05-07T03:12:12.966Z,56.75
2019-05-07T03:12:47.378Z,56.79
2019-05-07T03:13:23.857Z,56.85
2019-05-07T03:13:59.483Z,56.86
2019-05-07T03:14:34.932Z,57.37
2019-05-07T03:15:12.941Z,57.37
2019-05-07T03:15:47.781Z,56.82
2019-05-07T03:16:38.680Z,56.37
2019-05-07T03:17:03.077Z,56.49
2019-05-07T03:17:38.580Z,56.69
2019-05-07T03:18:18.621Z,56.75
2019-05-07T03:18:53.278Z,57.02
2019-05-07T03:19:29.302Z,57.17
2019-05-07T03:20:07.851Z,57.17
2019-05-07T03:20:57.248Z,57.52
2019-05-07T03:21:53.407Z,57.61
2019-05-07T03:22:28.169Z,57.61
2019-05-07T03:23:04.570Z,57.43
2019-05-07T03:24:03.411Z,57.64
2019-05-07T03:24:53.606Z,57.64
2019-05-07T03:25:33.987Z,57.67
2019-05-07T03:26:16.804Z,58.01
2019-05-07T03:26:53.589Z,58.01
2019-05-07T03:27:29.279Z,57.83
2019-05-07T03:28:04.746Z,57.96
2019-05-07T03:29:03.648Z,57.77
2019-05-07T03:29:38.742Z,57.73
2019-05-07T03:30:35.954Z,57.80
2019-05-07T03:31:17.252Z,57.94
2019-05-07T03:31:59.005Z,58.19
2019-05-07T03:32:46.902Z,58.23
2019-05-07T03:33:37.324Z,58.20
2019-05-07T03:34:36.914Z,58.06
2019-05-07T03:35:20.558Z,57.94
2019-05-07T03:35:57.285Z,57.62
2019-05-07T03:36:46.588Z,57.83
2019-05-07T03:37:23.410Z,57.96
2019-05-07T03:37:58.777Z,57.94
2019-05-07T03:38:34.226Z,57.82
2019-05-07T03:39:09.687Z,58.38
2019-05-07T03:39:46.319Z,58.38
2019-05-07T03:40:23.109Z,58.58
2019-05-07T03:40:59.019Z,58.97
2019-05-07T03:41:34.532Z,58.97
2019-05-07T03:42:12.764Z,59.39
2019-05-07T03:42:47.143Z,59.39
2019-05-07T03:43:24.578Z,59.40
2019-05-07T03:44:03.730Z,59.00
2019-05-07T03:45:07.186Z,59.33
2019-05-07T03:46:17.544Z,59.61
2019-05-07T03:47:01.597Z,59.37
2019-05-07T03:47:34.289Z,59.70
2019-05-07T03:48:17.879Z,60.08
2019-05-07T03:48:53.406Z,60.27
2019-05-07T03:49:33.877Z,60.53
2019-05-07T03:50:10.143Z,60.53
2019-05-07T03:50:45.654Z,60.73
2019-05-07T03:51:23.760Z,60.82
2019-05-07T03:51:58.351Z,61.05
2019-05-07T03:52:33.832Z,60.97
2019-05-07T03:53:09.245Z,61.01
2019-05-07T03:53:44.763Z,61.12
2019-05-07T03:54:20.327Z,61.25
2019-05-07T03:54:56.117Z,61.25
2019-05-07T03:55:33.243Z,61.48
2019-05-07T03:56:09.173Z,61.48
2019-05-07T03:56:44.712Z,61.59
2019-05-07T03:57:23.464Z,61.65
2019-05-07T03:57:57.434Z,61.25
2019-05-07T03:58:33.922Z,61.25
2019-05-07T03:59:12.868Z,61.27
2019-05-07T03:59:47.255Z,61.27
2019-05-07T04:00:23.857Z,61.36
2019-05-07T04:00:59.561Z,61.21
2019-05-07T04:01:34.979Z,61.03
2019-05-07T04:02:13.926Z,61.03
2019-05-07T04:02:48.068Z,61.04
2019-05-07T04:03:24.744Z,61.24
2019-05-07T04:04:03.575Z,61.70
2019-05-07T04:04:37.961Z,61.70
2019-05-07T04:05:14.445Z,60.97
2019-05-07T04:05:53.052Z,60.97
2019-05-07T04:06:27.658Z,61.14
2019-05-07T04:07:03.627Z,61.41
2019-05-07T04:07:39.650Z,61.25
2019-05-07T04:08:15.860Z,61.07
2019-05-07T04:08:53.170Z,61.07
2019-05-07T04:09:28.625Z,61.39
2019-05-07T04:10:04.986Z,61.45
2019-05-07T04:10:43.785Z,61.61
2019-05-07T04:11:17.645Z,61.56
2019-05-07T04:11:53.205Z,61.47
2019-05-07T04:12:29.054Z,61.31
2019-05-07T04:13:04.771Z,61.27
2019-05-07T04:13:40.263Z,61.60
2019-05-07T04:14:16.262Z,61.52
2019-05-07T04:14:53.443Z,61.67
2019-05-07T04:15:32.770Z,61.95
2019-05-07T04:16:06.920Z,61.95
2019-05-07T04:16:44.118Z,62.18
2019-05-07T04:17:23.269Z,62.18
2019-05-07T04:17:57.441Z,62.56
2019-05-07T04:18:33.314Z,62.57
2019-05-07T04:19:13.000Z,62.56
2019-05-07T04:19:46.929Z,62.58
2019-05-07T04:20:23.937Z,62.69
2019-05-07T04:20:59.694Z,62.75
2019-05-07T04:21:35.167Z,62.31
2019-05-07T04:22:13.126Z,62.31
2019-05-07T04:22:48.263Z,62.28
2019-05-07T04:23:23.828Z,62.31
2019-05-07T04:24:15.162Z,62.48
2019-05-07T04:24:59.077Z,62.48
2019-05-07T04:25:59.984Z,62.89
2019-05-07T04:26:42.932Z,62.75
2019-05-07T04:27:26.188Z,62.33
2019-05-07T04:28:09.419Z,61.92
2019-05-07T04:28:54.704Z,61.97
2019-05-07T04:29:30.177Z,62.04
2019-05-07T04:30:06.156Z,61.99
2019-05-07T04:30:43.813Z,61.37
2019-05-07T04:31:19.018Z,61.34
2019-05-07T04:31:55.359Z,61.55
2019-05-07T04:32:37.626Z,61.97
2019-05-07T04:33:14.557Z,62.33
2019-05-07T04:33:53.154Z,62.39
2019-05-07T04:34:45.572Z,62.03
2019-05-07T04:35:27.054Z,60.83
2019-05-07T04:36:08.371Z,60.83
2019-05-07T04:36:46.638Z,61.31
2019-05-07T04:37:24.017Z,61.33
2019-05-07T04:38:02.205Z,61.43
2019-05-07T04:38:37.217Z,61.52
2019-05-07T04:39:13.470Z,61.52
2019-05-07T04:39:55.441Z,61.21
2019-05-07T04:40:33.820Z,60.88
2019-05-07T04:41:08.426Z,60.87
2019-05-07T04:41:44.742Z,60.99
2019-05-07T04:42:24.049Z,61.04
2019-05-07T04:42:57.958Z,60.55
2019-05-07T04:43:33.814Z,60.55
2019-05-07T04:44:09.433Z,60.20
2019-05-07T04:44:45.421Z,60.40
2019-05-07T04:45:23.177Z,60.40
2019-05-07T04:45:58.701Z,60.48
2019-05-07T04:46:34.153Z,60.08
2019-05-07T04:47:13.113Z,60.24
2019-05-07T04:47:48.138Z,60.40
2019-05-07T04:48:24.213Z,60.47
2019-05-07T04:48:59.658Z,60.62
2019-05-07T04:49:35.378Z,60.96
2019-05-07T04:50:13.904Z,61.05
2019-05-07T04:50:54.223Z,61.16
2019-05-07T04:51:39.119Z,61.42
2019-05-07T04:52:23.666Z,61.49
2019-05-07T04:52:57.885Z,61.35
2019-05-07T04:53:33.659Z,61.33
2019-05-07T04:54:09.460Z,61.38
2019-05-07T04:54:45.086Z,61.33
2019-05-07T04:55:22.963Z,61.23
2019-05-07T04:55:58.120Z,60.99
2019-05-07T04:56:33.899Z,60.30
2019-05-07T04:57:25.595Z,60.30
2019-05-07T04:58:03.404Z,59.63
2019-05-07T04:58:38.303Z,59.63
2019-05-07T04:59:14.399Z,58.95
2019-05-07T04:59:49.911Z,59.15
2019-05-07T05:00:25.413Z,59.23
2019-05-07T05:01:03.274Z,59.48
2019-05-07T05:01:43.599Z,59.26
2019-05-07T05:02:23.124Z,59.62
2019-05-07T05:03:26.640Z,60.55
2019-05-07T05:04:21.156Z,60.55
2019-05-07T05:04:39.223Z,60.53
2019-05-07T05:05:15.722Z,60.49
2019-05-07T05:05:53.234Z,60.61
2019-05-07T05:06:29.340Z,60.61
2019-05-07T05:07:04.801Z,59.41
2019-05-07T05:07:42.870Z,59.30
2019-05-07T05:08:18.274Z,59.30
2019-05-07T05:08:56.244Z,59.56
2019-05-07T05:09:32.885Z,59.87
2019-05-07T05:10:08.947Z,59.91
2019-05-07T05:10:44.704Z,59.80
2019-05-07T05:11:23.042Z,59.79
2019-05-07T05:11:57.931Z,60.01
2019-05-07T05:12:33.379Z,60.01
2019-05-07T05:13:08.861Z,59.50
2019-05-07T05:13:45.061Z,59.72
2019-05-07T05:14:22.700Z,59.66
2019-05-07T05:14:57.929Z,59.66
2019-05-07T05:15:33.800Z,59.66
2019-05-07T05:16:25.627Z,59.40
2019-05-07T05:17:02.070Z,58.59
2019-05-07T05:17:48.019Z,58.93
2019-05-07T05:18:15.417Z,58.66
2019-05-07T05:18:51.714Z,58.66
2019-05-07T05:19:27.683Z,58.93
2019-05-07T05:20:03.746Z,58.66
2019-05-07T05:20:56.805Z,58.62
2019-05-07T05:21:44.495Z,58.19
2019-05-07T05:22:39.416Z,58.19
2019-05-07T05:23:46.429Z,58.33
2019-05-07T05:24:27.149Z,58.33
2019-05-07T05:25:17.969Z,58.14
2019-05-07T05:25:53.858Z,58.20
2019-05-07T05:26:29.307Z,58.19
2019-05-07T05:27:04.797Z,58.81
2019-05-07T05:27:42.842Z,58.54
2019-05-07T05:28:17.893Z,58.54
2019-05-07T05:28:53.385Z,58.79
2019-05-07T05:29:28.862Z,58.67
2019-05-07T05:30:04.988Z,58.61
2019-05-07T05:30:43.121Z,58.60
2019-05-07T05:31:19.001Z,58.60
2019-05-07T05:31:54.454Z,58.57
2019-05-07T05:32:32.432Z,58.60
2019-05-07T05:33:07.679Z,58.25
2019-05-07T05:33:43.692Z,58.52
2019-05-07T05:34:22.100Z,58.86
2019-05-07T05:34:58.673Z,58.86
2019-05-07T05:35:34.489Z,58.89
2019-05-07T05:36:12.440Z,58.60
2019-05-07T05:36:47.295Z,58.37
2019-05-07T05:37:23.313Z,58.40
2019-05-07T05:37:59.094Z,58.42
2019-05-07T05:38:34.534Z,58.93
2019-05-07T05:39:10.007Z,58.73
2019-05-07T05:39:46.576Z,58.08
2019-05-07T05:40:22.860Z,58.16
2019-05-07T05:40:58.653Z,58.16
2019-05-07T05:41:37.724Z,58.33
2019-05-07T05:42:36.526Z,58.01
2019-05-07T05:43:19.452Z,58.01
2019-05-07T05:44:07.622Z,58.50
2019-05-07T05:44:43.327Z,58.00
2019-05-07T05:45:35.889Z,57.48
2019-05-07T05:46:12.178Z,57.37
2019-05-07T05:46:47.932Z,57.43
2019-05-07T05:47:23.796Z,57.38
2019-05-07T05:48:04.548Z,57.27
2019-05-07T05:48:37.102Z,57.28
2019-05-07T05:49:13.669Z,57.28
2019-05-07T05:49:49.591Z,56.55
2019-05-07T05:50:26.937Z,56.64
2019-05-07T05:51:11.782Z,56.64
2019-05-07T05:51:59.323Z,57.26
2019-05-07T05:52:45.569Z,56.97
2019-05-07T05:53:43.502Z,56.87
2019-05-07T05:54:38.042Z,56.69
2019-05-07T05:55:16.951Z,56.56
2019-05-07T05:55:53.376Z,56.79
2019-05-07T05:56:37.664Z,56.54
2019-05-07T05:57:23.018Z,56.54
2019-05-07T05:58:12.761Z,56.26
2019-05-07T05:59:05.355Z,56.26
2019-05-07T06:00:05.732Z,56.28
2019-05-07T06:01:09.440Z,56.28
2019-05-07T06:01:58.256Z,56.03
2019-05-07T06:02:58.476Z,54.97
2019-05-07T06:03:49.398Z,54.97
2019-05-07T06:04:33.572Z,54.90
2019-05-07T06:05:34.321Z,55.37
2019-05-07T06:06:33.702Z,55.37
2019-05-07T06:07:15.330Z,55.15
2019-05-07T06:07:59.950Z,55.15
2019-05-07T06:08:43.616Z,55.30
2019-05-07T06:09:29.957Z,55.74
2019-05-07T06:10:17.529Z,55.74
2019-05-07T06:11:14.575Z,55.03
2019-05-07T06:12:12.796Z,54.50
2019-05-07T06:13:01.760Z,54.25
2019-05-07T06:13:52.649Z,54.53
2019-05-07T06:14:46.753Z,54.53
2019-05-07T06:15:44.302Z,54.41
2019-05-07T06:16:23.282Z,54.58
2019-05-07T06:17:16.495Z,53.89
2019-05-07T06:18:29.468Z,53.89
2019-05-07T06:19:33.335Z,53.51
2019-05-07T06:20:37.236Z,53.51
2019-05-07T06:21:24.098Z,53.77
2019-05-07T06:22:12.822Z,54.46
2019-05-07T06:23:07.365Z,54.46
2019-05-07T06:23:46.682Z,54.64
2019-05-07T06:24:32.813Z,55.03
2019-05-07T06:25:15.675Z,55.63
2019-05-07T06:25:52.336Z,56.02
2019-05-07T06:26:28.187Z,55.71
2019-05-07T06:27:03.775Z,55.69
2019-05-07T06:27:39.253Z,55.97
2019-05-07T06:28:14.819Z,55.53
2019-05-07T06:28:51.909Z,55.53
2019-05-07T06:29:27.487Z,56.07
2019-05-07T06:30:05.026Z,56.03
2019-05-07T06:30:41.846Z,55.62
2019-05-07T06:31:17.567Z,55.45
2019-05-07T06:32:03.260Z,56.00
2019-05-07T06:32:39.084Z,55.97
2019-05-07T06:33:14.709Z,55.97
2019-05-07T06:33:52.275Z,55.63
2019-05-07T06:34:28.131Z,55.76
2019-05-07T06:35:03.585Z,55.73
2019-05-07T06:35:39.381Z,55.64
2019-05-07T06:36:15.123Z,55.37
2019-05-07T06:36:52.676Z,54.86
2019-05-07T06:37:28.314Z,54.50
2019-05-07T06:38:04.879Z,54.50
2019-05-07T06:38:49.599Z,54.35
2019-05-07T06:39:28.138Z,54.11
2019-05-07T06:40:29.323Z,54.90
2019-05-07T06:41:25.036Z,54.28
2019-05-07T06:42:22.251Z,54.34
2019-05-07T06:43:04.241Z,53.29
2019-05-07T06:43:44.367Z,53.29
2019-05-07T06:44:22.518Z,53.27
2019-05-07T06:45:05.499Z,53.44
2019-05-07T06:45:44.143Z,53.56
2019-05-07T06:46:19.649Z,53.56
2019-05-07T06:46:55.173Z,54.38
2019-05-07T06:47:31.901Z,54.38
2019-05-07T06:48:07.789Z,54.18
2019-05-07T06:48:46.119Z,53.56
2019-05-07T06:49:22.289Z,53.26
2019-05-07T06:49:58.338Z,53.00
2019-05-07T06:50:34.059Z,52.54
2019-05-07T06:51:09.542Z,52.54
2019-05-07T06:51:47.679Z,52.64
2019-05-07T06:52:22.522Z,52.87
2019-05-07T06:52:57.971Z,52.71
2019-05-07T06:53:33.854Z,52.22
2019-05-07T06:54:09.694Z,51.56
2019-05-07T06:54:45.309Z,51.93
2019-05-07T06:55:22.877Z,51.86
2019-05-07T06:56:00.068Z,51.42
2019-05-07T06:56:35.548Z,51.61
2019-05-07T06:57:13.048Z,51.62
2019-05-07T06:57:48.233Z,51.03
2019-05-07T06:58:25.619Z,51.03
2019-05-07T06:59:06.388Z,51.15
2019-05-07T06:59:45.952Z,51.00
2019-05-07T07:00:42.198Z,51.03
2019-05-07T07:01:35.929Z,51.23
2019-05-07T07:02:37.241Z,51.58
2019-05-07T07:03:27.805Z,50.84
2019-05-07T07:04:13.876Z,50.81
2019-05-07T07:04:56.903Z,51.36
2019-05-07T07:05:51.846Z,51.52
2019-05-07T07:06:32.079Z,52.10
2019-05-07T07:07:26.089Z,51.69
2019-05-07T07:07:56.724Z,51.21
2019-05-07T07:08:37.038Z,51.17
2019-05-07T07:09:19.651Z,50.96
2019-05-07T07:10:27.084Z,51.39
2019-05-07T07:11:22.434Z,52.16
2019-05-07T07:12:02.094Z,52.16
2019-05-07T07:12:37.272Z,51.98
2019-05-07T07:13:13.042Z,51.27
2019-05-07T07:13:48.584Z,50.88
2019-05-07T07:14:24.455Z,51.02
2019-05-07T07:15:02.568Z,50.62
2019-05-07T07:15:37.400Z,51.01
2019-05-07T07:16:13.471Z,51.27
2019-05-07T07:16:49.347Z,51.46
2019-05-07T07:17:25.050Z,51.76
2019-05-07T07:18:02.986Z,52.01
2019-05-07T07:18:51.363Z,52.29
2019-05-07T07:19:15.399Z,52.27
2019-05-07T07:19:52.333Z,52.25
2019-05-07T07:20:27.941Z,51.92
2019-05-07T07:21:04.411Z,51.74
2019-05-07T07:21:42.040Z,51.92
2019-05-07T07:22:17.828Z,51.66
2019-05-07T07:22:53.339Z,51.67
2019-05-07T07:23:28.805Z,51.57
2019-05-07T07:24:04.393Z,51.54
2019-05-07T07:24:42.280Z,50.93
2019-05-07T07:25:17.586Z,50.70
2019-05-07T07:25:53.048Z,50.71
2019-05-07T07:26:28.508Z,50.68
2019-05-07T07:27:04.002Z,50.86
2019-05-07T07:27:39.437Z,50.99
2019-05-07T07:28:15.369Z,50.79
2019-05-07T07:28:52.507Z,50.48
2019-05-07T07:29:32.469Z,49.92
2019-05-07T07:30:21.872Z,50.11
2019-05-07T07:31:13.965Z,49.97
2019-05-07T07:31:55.224Z,49.94
2019-05-07T07:32:36.489Z,50.04
2019-05-07T07:33:12.299Z,49.65
2019-05-07T07:33:48.207Z,49.42
2019-05-07T07:34:24.573Z,49.87
2019-05-07T07:35:02.409Z,50.02
2019-05-07T07:35:37.574Z,49.40
2019-05-07T07:36:13.080Z,49.13
2019-05-07T07:37:08.988Z,49.22
2019-05-07T07:37:43.007Z,48.79
2019-05-07T07:38:34.146Z,48.61
2019-05-07T07:39:09.842Z,48.04
2019-05-07T07:39:45.846Z,48.17
2019-05-07T07:40:36.616Z,47.89
2019-05-07T07:41:27.052Z,47.89
2019-05-07T07:42:04.169Z,47.14
2019-05-07T07:42:40.011Z,47.43
2019-05-07T07:43:15.577Z,47.47
2019-05-07T07:43:52.606Z,47.45
2019-05-07T07:44:28.177Z,47.25
2019-05-07T07:45:18.987Z,47.85
2019-05-07T07:45:54.435Z,47.85
2019-05-07T07:46:29.978Z,47.43
2019-05-07T07:47:05.555Z,47.24
2019-05-07T07:47:42.224Z,46.36
2019-05-07T07:48:18.523Z,45.81
2019-05-07T07:49:06.884Z,45.60
2019-05-07T07:49:32.917Z,45.38
2019-05-07T07:50:08.795Z,45.15
2019-05-07T07:50:45.117Z,45.29
2019-05-07T07:51:36.660Z,45.80
2019-05-07T07:51:57.835Z,46.63
2019-05-07T07:52:33.612Z,47.08
2019-05-07T07:53:09.061Z,46.93
2019-05-07T07:53:44.957Z,46.62
2019-05-07T07:54:22.653Z,45.24
2019-05-07T07:54:57.746Z,45.24
2019-05-07T07:55:42.606Z,44.96
2019-05-07T07:56:49.991Z,46.07
2019-05-07T07:57:36.244Z,46.07
2019-05-07T07:58:34.268Z,46.04
2019-05-07T07:59:22.159Z,46.33
2019-05-07T08:00:16.720Z,46.04
2019-05-07T08:01:02.820Z,46.23
2019-05-07T08:01:44.028Z,44.63
2019-05-07T08:02:38.770Z,44.63
2019-05-07T08:03:14.551Z,44.61
2019-05-07T08:03:52.103Z,44.79
2019-05-07T08:04:27.584Z,44.94
2019-05-07T08:05:03.084Z,44.92
2019-05-07T08:05:38.538Z,44.44
2019-05-07T08:06:14.004Z,44.50
2019-05-07T08:07:03.085Z,44.60
2019-05-07T08:07:39.017Z,44.93
2019-05-07T08:08:14.860Z,45.07
2019-05-07T08:08:52.885Z,45.08
2019-05-07T08:09:28.027Z,45.00
2019-05-07T08:10:03.685Z,45.00
2019-05-07T08:10:39.703Z,45.37
2019-05-07T08:11:15.270Z,46.10
2019-05-07T08:11:52.698Z,46.40
2019-05-07T08:12:28.384Z,46.70
2019-05-07T08:13:04.331Z,46.11
2019-05-07T08:13:42.456Z,46.38
2019-05-07T08:14:17.796Z,45.72
2019-05-07T08:14:53.753Z,45.72
2019-05-07T08:15:29.247Z,45.40
2019-05-07T08:16:04.846Z,45.07
2019-05-07T08:16:42.716Z,44.62
2019-05-07T08:17:17.968Z,44.07
2019-05-07T08:17:54.126Z,43.86
2019-05-07T08:18:29.707Z,44.18
2019-05-07T08:19:18.466Z,44.48
2019-05-07T08:19:43.045Z,44.96
2019-05-07T08:20:22.072Z,45.37
2019-05-07T08:20:57.507Z,45.77
2019-05-07T08:21:33.288Z,45.95
2019-05-07T08:22:08.886Z,46.05
2019-05-07T08:22:44.756Z,46.17
2019-05-07T08:23:22.499Z,45.66
2019-05-07T08:23:58.143Z,45.66
2019-05-07T08:24:33.588Z,45.59
2019-05-07T08:25:09.734Z,45.23
2019-05-07T08:25:48.488Z,44.69
2019-05-07T08:26:24.033Z,44.89
2019-05-07T08:27:02.148Z,43.53
2019-05-07T08:27:37.380Z,43.53